createdAt,value
2022-10-20T00:03:27.812Z,7.60
2022-10-20T00:08:30.470Z,7.61
2022-10-20T00:13:34.399Z,7.59
2022-10-20T00:18:37.750Z,7.69
2022-10-20T00:23:40.352Z,7.75
2022-10-20T00:28:44.774Z,7.79
2022-10-20T00:33:47.818Z,7.78
2022-10-20T00:38:50.869Z,7.70
2022-10-20T00:43:56.173Z,7.70
2022-10-20T00:49:01.451Z,7.72
2022-10-20T00:54:09.033Z,7.68
2022-10-20T00:59:15.939Z,7.70
2022-10-20T01:04:18.958Z,7.75
2022-10-20T01:09:21.632Z,7.72
2022-10-20T01:14:36.307Z,7.70
2022-10-20T01:19:53.748Z,7.64
2022-10-20T01:25:02.624Z,7.56
2022-10-20T01:30:12.582Z,7.51
2022-10-20T01:35:22.193Z,7.51
2022-10-20T01:40:28.507Z,7.40
2022-10-20T01:45:34.993Z,7.42
2022-10-20T01:50:38.343Z,7.44
2022-10-20T01:55:41.546Z,7.49
2022-10-20T02:00:45.998Z,7.47
2022-10-20T02:05:58.307Z,7.42
2022-10-20T02:11:03.134Z,7.39
2022-10-20T02:16:10.567Z,7.38
2022-10-20T02:21:13.279Z,7.35
2022-10-20T02:26:17.189Z,7.32
2022-10-20T02:31:21.703Z,7.26
2022-10-20T02:36:28.074Z,7.26
2022-10-20T02:41:31.148Z,7.21
2022-10-20T02:46:35.252Z,7.23
2022-10-20T02:51:38.024Z,7.21
2022-10-20T02:56:40.616Z,7.26
2022-10-20T03:01:44.848Z,7.35
2022-10-20T03:06:47.543Z,7.41
2022-10-20T03:11:50.123Z,7.42
2022-10-20T03:16:54.063Z,7.42
2022-10-20T03:21:56.687Z,7.41
2022-10-20T03:26:59.351Z,7.42
2022-10-20T03:32:03.286Z,7.46
2022-10-20T03:37:06.021Z,7.46
2022-10-20T03:42:08.670Z,7.45
2022-10-20T03:47:13.138Z,7.45
2022-10-20T03:52:15.761Z,7.40
2022-10-20T03:57:18.447Z,7.37
2022-10-20T04:02:31.715Z,7.32
2022-10-20T04:07:34.419Z,7.31
2022-10-20T04:12:37.627Z,7.29
2022-10-20T04:17:41.969Z,7.28
2022-10-20T04:22:44.595Z,7.24
2022-10-20T04:27:47.211Z,7.24
2022-10-20T04:32:51.263Z,7.22
2022-10-20T04:37:55.511Z,7.24
2022-10-20T04:42:59.982Z,7.19
2022-10-20T04:48:05.821Z,7.13
2022-10-20T04:53:08.606Z,7.13
2022-10-20T04:58:11.381Z,7.10
2022-10-20T05:03:15.386Z,7.09
2022-10-20T05:08:17.996Z,7.07
2022-10-20T05:13:20.702Z,6.93
2022-10-20T05:18:24.973Z,6.84
2022-10-20T05:23:27.682Z,6.77
2022-10-20T05:28:30.516Z,6.80
2022-10-20T05:33:34.721Z,6.73
2022-10-20T05:38:37.879Z,6.63
2022-10-20T05:43:41.312Z,6.64
2022-10-20T05:48:45.414Z,6.65
2022-10-20T05:53:48.441Z,6.61
2022-10-20T05:58:51.023Z,6.57
2022-10-20T06:03:56.577Z,6.57
2022-10-20T06:09:00.519Z,6.58
2022-10-20T06:14:03.259Z,6.48
2022-10-20T06:19:07.816Z,6.36
2022-10-20T06:24:11.057Z,6.37
2022-10-20T06:29:16.203Z,6.50
2022-10-20T06:34:21.666Z,6.62
2022-10-20T06:39:25.095Z,6.65
2022-10-20T06:44:27.737Z,6.77
2022-10-20T06:49:32.102Z,6.77
2022-10-20T06:54:34.717Z,6.87
2022-10-20T06:59:38.672Z,7.00
2022-10-20T07:04:42.929Z,7.11
2022-10-20T07:09:45.526Z,7.28
2022-10-20T07:14:49.203Z,7.44
2022-10-20T07:19:53.338Z,7.52
2022-10-20T07:24:56.066Z,7.71
2022-10-20T07:29:58.670Z,7.85
2022-10-20T07:35:02.677Z,8.02
2022-10-20T07:40:06.324Z,8.14
2022-10-20T07:45:09.870Z,8.24
2022-10-20T07:50:13.968Z,8.32
2022-10-20T07:55:33.529Z,8.52
2022-10-20T08:05:48.413Z,8.78
2022-10-20T08:10:51.230Z,8.92
2022-10-20T08:15:54.025Z,8.99
2022-10-20T08:21:09.374Z,9.08
2022-10-20T08:26:13.078Z,9.23
2022-10-20T08:31:15.795Z,9.30
2022-10-20T08:36:19.888Z,9.33
2022-10-20T08:41:24.752Z,9.38
2022-10-20T08:46:30.770Z,9.51
2022-10-20T08:51:38.202Z,9.62
2022-10-20T08:56:40.940Z,9.71
2022-10-20T09:01:43.636Z,9.86
2022-10-20T09:06:51.367Z,10.01
2022-10-20T09:11:57.215Z,10.21
2022-10-20T09:17:00.851Z,10.39
2022-10-20T09:22:07.424Z,10.53
2022-10-20T09:27:22.602Z,10.64
2022-10-20T09:32:45.909Z,10.75
2022-10-20T09:38:03.025Z,10.85
2022-10-20T09:43:10.642Z,11.05
2022-10-20T09:48:20.305Z,11.18
2022-10-20T09:53:26.773Z,11.27
2022-10-20T09:58:31.193Z,11.41
2022-10-20T10:03:39.901Z,11.57
2022-10-20T10:08:46.774Z,11.67
2022-10-20T10:13:50.766Z,11.78
2022-10-20T10:18:59.770Z,11.92
2022-10-20T10:24:05.579Z,12.09
2022-10-20T10:29:17.669Z,12.20
2022-10-20T10:34:44.991Z,12.27
2022-10-20T10:39:49.550Z,12.40
2022-10-20T10:44:57.471Z,12.55
2022-10-20T10:50:04.555Z,12.66
2022-10-20T10:55:30.504Z,12.92
2022-10-20T11:00:43.902Z,13.17
2022-10-20T11:06:15.457Z,13.39
2022-10-20T11:11:28.724Z,13.65
2022-10-20T11:16:34.351Z,14.07
2022-10-20T11:21:44.550Z,14.79
2022-10-20T11:26:52.167Z,15.57
2022-10-20T11:31:58.719Z,16.13
2022-10-20T11:37:05.996Z,16.48
2022-10-20T11:42:19.826Z,16.79
2022-10-20T11:47:26.819Z,17.05
2022-10-20T11:53:00.635Z,17.28
2022-10-20T11:58:15.839Z,17.20
2022-10-20T12:03:46.914Z,17.52
2022-10-20T12:09:20.399Z,17.60
2022-10-20T12:14:27.375Z,17.85
2022-10-20T12:19:31.449Z,18.11
2022-10-20T12:24:36.955Z,18.20
2022-10-20T12:29:58.401Z,18.28
2022-10-20T12:35:02.653Z,18.22
2022-10-20T12:40:21.630Z,17.40
2022-10-20T12:45:36.784Z,17.14
2022-10-20T12:50:41.611Z,16.82
2022-10-20T12:55:45.689Z,16.33
2022-10-20T13:01:09.637Z,16.11
2022-10-20T13:06:45.141Z,16.46
2022-10-20T13:11:58.157Z,16.50
2022-10-20T13:17:11.673Z,16.78
2022-10-20T13:22:38.925Z,16.72
2022-10-20T13:27:41.627Z,16.49
2022-10-20T13:33:10.877Z,16.30
2022-10-20T13:38:18.039Z,16.17
2022-10-20T13:43:30.791Z,15.92
2022-10-20T13:48:45.293Z,15.65
2022-10-20T13:53:50.094Z,15.41
2022-10-20T13:59:04.536Z,15.26
2022-10-20T14:04:26.159Z,15.11
2022-10-20T14:09:28.796Z,14.97
2022-10-20T14:14:32.034Z,14.87
2022-10-20T14:19:36.457Z,14.83
2022-10-20T14:24:43.121Z,14.80
2022-10-20T14:29:46.541Z,14.76
2022-10-20T14:34:58.656Z,14.66
2022-10-20T14:40:02.310Z,14.58
2022-10-20T14:45:05.881Z,14.52
2022-10-20T14:50:21.383Z,14.42
2022-10-20T14:55:35.274Z,14.30
2022-10-20T15:00:38.454Z,14.15
2022-10-20T15:05:45.228Z,14.02
2022-10-20T15:10:47.950Z,13.89
2022-10-20T15:15:50.753Z,13.79
2022-10-20T15:20:55.654Z,13.68
2022-10-20T15:26:00.330Z,13.56
2022-10-20T15:31:05.148Z,13.44
2022-10-20T15:36:14.994Z,13.31
2022-10-20T15:41:19.444Z,13.18
2022-10-20T15:46:22.880Z,13.07
2022-10-20T15:51:28.676Z,12.94
2022-10-20T15:56:31.274Z,12.84
2022-10-20T16:01:34.234Z,12.74
2022-10-20T16:06:38.721Z,12.65
2022-10-20T16:11:41.333Z,12.56
2022-10-20T16:16:45.100Z,12.47
2022-10-20T16:21:49.235Z,12.36
2022-10-20T16:26:52.706Z,12.31
2022-10-20T16:31:55.667Z,12.23
2022-10-20T16:36:59.765Z,12.16
2022-10-20T16:42:02.545Z,12.10
2022-10-20T16:47:05.565Z,12.07
2022-10-20T16:52:09.660Z,12.05
2022-10-20T16:57:13.054Z,12.00
2022-10-20T17:02:16.253Z,11.90
2022-10-20T17:07:20.419Z,11.86
2022-10-20T17:12:23.198Z,11.79
2022-10-20T17:17:25.871Z,11.77
2022-10-20T17:22:29.955Z,11.70
2022-10-20T17:27:32.830Z,11.69
2022-10-20T17:32:36.379Z,11.69
2022-10-20T17:37:40.658Z,11.65
2022-10-20T17:42:43.379Z,11.60
2022-10-20T17:47:46.158Z,11.58
2022-10-20T17:52:50.642Z,11.55
2022-10-20T17:57:53.302Z,11.53
2022-10-20T18:02:56.059Z,11.51
2022-10-20T18:08:00.287Z,11.45
2022-10-20T18:13:03.136Z,11.42
2022-10-20T18:18:06.212Z,11.39
2022-10-20T18:23:10.513Z,11.39
2022-10-20T18:33:24.278Z,11.33
2022-10-20T18:38:28.426Z,11.33
2022-10-20T18:43:31.041Z,11.37
2022-10-20T18:48:35.597Z,11.36
2022-10-20T18:58:49.286Z,11.26
2022-10-20T19:03:53.168Z,11.26
2022-10-20T19:08:58.260Z,11.23
2022-10-20T19:14:01.481Z,11.21
2022-10-20T19:19:06.381Z,11.21
2022-10-20T19:24:13.489Z,11.19
2022-10-20T19:29:18.453Z,11.22
2022-10-20T19:34:23.154Z,11.27
2022-10-20T19:39:29.594Z,11.30
2022-10-20T19:44:32.422Z,11.28
2022-10-20T19:49:37.630Z,11.33
2022-10-20T19:54:42.012Z,11.41
2022-10-20T19:59:44.846Z,11.36
2022-10-20T20:04:47.850Z,11.34
2022-10-20T20:09:51.997Z,11.07
2022-10-20T20:14:54.695Z,11.02
2022-10-20T20:19:57.906Z,10.78
2022-10-20T20:25:02.067Z,10.71
2022-10-20T20:30:05.337Z,10.81
2022-10-20T20:35:09.477Z,10.99
2022-10-20T20:40:13.863Z,11.06
2022-10-20T20:45:16.793Z,11.15
2022-10-20T20:50:19.552Z,11.22
2022-10-20T20:55:23.479Z,11.25
2022-10-20T21:00:26.301Z,11.26
2022-10-20T21:05:29.385Z,11.28
2022-10-20T21:10:35.609Z,11.32
2022-10-20T21:15:38.285Z,11.36
2022-10-20T21:20:41.100Z,11.38
2022-10-20T21:25:47.851Z,11.38
2022-10-20T21:30:50.757Z,11.33
2022-10-20T21:35:53.383Z,11.31
2022-10-20T21:41:02.332Z,11.30
2022-10-20T21:46:13.502Z,11.31
2022-10-20T21:51:18.170Z,11.32
2022-10-20T21:56:22.151Z,11.38
2022-10-20T22:01:25.915Z,11.44
2022-10-20T22:06:28.801Z,11.45
2022-10-20T22:11:34.531Z,11.49
2022-10-20T22:16:38.346Z,11.46
2022-10-20T22:21:43.111Z,11.47
2022-10-20T22:26:47.849Z,11.48
2022-10-20T22:31:51.134Z,11.52
2022-10-20T22:36:53.725Z,11.53
2022-10-20T22:41:57.743Z,11.54
2022-10-20T22:47:00.313Z,11.52
2022-10-20T22:52:02.973Z,11.55
2022-10-20T22:57:07.019Z,11.60
2022-10-20T23:02:09.687Z,11.66
2022-10-20T23:07:12.284Z,11.67
2022-10-20T23:12:18.133Z,11.68
2022-10-20T23:17:20.754Z,11.68
2022-10-20T23:22:23.367Z,11.69
2022-10-20T23:27:27.315Z,11.70
2022-10-20T23:32:29.965Z,11.70
2022-10-20T23:37:32.611Z,11.69
2022-10-20T23:42:36.541Z,11.68
2022-10-20T23:47:39.538Z,11.67
2022-10-20T23:52:42.382Z,11.69
2022-10-20T23:57:46.320Z,11.68
